ADDS METAR Data INFO
IDs: Format: Raw Decoded Include TAF

Data at: 2218 UTC 24 Jun 2018

KFUL 242153Z 22010KT 10SM FEW020 23/14 A2993 RMK AO2 SLP134 T02330144
KFUL 242053Z 26006G15KT 10SM CLR 24/14 A2994 RMK AO2 SLP136 T02440144 56004
KFUL 241953Z 21009KT 10SM FEW020 24/14 A2994 RMK AO2 SLP137 T02440144
KFUL 241853Z VRB04KT 10SM CLR 23/14 A2994 RMK AO2 SLP137 T02330139
KFUL 241826Z 00000KT 10SM SCT025 22/14 A2995 RMK AO2 T02170139
KFUL 241753Z 14004KT 10SM OVC023 21/14 A2995 RMK AO2 SLP140 T02060139 10206 20178 51011
KFUL 241653Z 17005KT 10SM OVC021 19/14 A2994 RMK AO2 SLP137 T01940139
KFUL 241553Z 16004KT 10SM OVC018 18/14 A2993 RMK AO2 SLP134 T01830139
KFUL 241453Z 12004KT 10SM OVC018 19/14 A2992 RMK AO2 SLP129 T01890139 53016
KFUL 241353Z AUTO 13005KT 10SM OVC016 18/14 A2990 RMK AO2 SLP123 T01830144
KFUL 241253Z AUTO 16004KT 10SM OVC015 18/14 A2989 RMK AO2 SLP119 T01780144
KFUL 241153Z AUTO 18004KT 10SM OVC015 18/14 A2987 RMK AO2 SLP114 T01780144 10183 20178 53003
KFUL 241053Z AUTO 17005KT 10SM OVC016 18/14 A2986 RMK AO2 SLP109 T01830144
KFUL 240953Z AUTO 20003KT 10SM OVC015 18/14 A2986 RMK AO2 SLP110 T01780144
KFUL 240853Z AUTO 19003KT 10SM OVC016 18/14 A2986 RMK AO2 SLP110 T01830144 56002
KFUL 240753Z AUTO 15006KT 10SM OVC017 18/14 A2986 RMK AO2 SLP110 T01830139 402330178
KFUL 240653Z AUTO 19005KT 10SM OVC017 18/14 A2987 RMK AO2 SLP112 T01830139
KFUL 240553Z AUTO 19005KT 10SM OVC018 18/14 A2987 RMK AO2 SLP113 T01830144 10217 20183 51012
KFUL 240453Z AUTO 17005KT 10SM OVC018 18/14 A2986 RMK AO2 SLP111 T01830139
KFUL 240353Z 19004KT 10SM OVC019 19/14 A2984 RMK AO2 SLP105 T01890139
KFUL 240305Z 17007KT 10SM BKN020 19/14 A2984 RMK AO2 T01890139
KFUL 240253Z 19006KT 10SM SCT020 19/14 A2983 RMK AO2 SLP101 T01890139 55003
KFUL 240153Z 19005KT 10SM SCT023 19/14 A2983 RMK AO2 SLP099 T01940139
KFUL 240053Z 20007KT 160V240 10SM SCT023 21/14 A2983 RMK AO2 SLP099 T02060144
KFUL 240036Z COR 19006KT 10SM SCT023 21/14 A2983 RMK AO2 T02110144
KFUL 232353Z 17008KT 10SM BKN023 21/14 A2984 RMK AO2 SLP103 T02110144 10233 20206 58009
KFUL 232253Z 20010KT 170V240 10SM BKN024 22/14 A2985 RMK AO2 SLP108 T02170144
KFUL 232153Z 18008KT 10SM BKN024 23/15 A2986 RMK AO2 SLP111 T02330150
KFUL 232053Z 18009KT 10SM OVC023 22/15 A2987 RMK AO2 SLP112 T02170150 50002
KFUL 231953Z 19008KT 160V220 10SM OVC022 22/15 A2987 RMK AO2 SLP114 T02170150
KFUL 231853Z 17009KT 10SM OVC020 21/16 A2987 RMK AO2 SLP112 T02110156
KFUL 231753Z VRB03KT 10SM OVC018 21/16 A2986 RMK AO2 SLP110 T02060156 10206 20178 51012
KFUL 231714Z 15006KT 10SM OVC015 20/16 A2985 RMK AO2 T02000156
KFUL 231653Z 18004KT 10SM OVC013 19/16 A2985 RMK AO2 SLP106 T01940156
KFUL 231601Z 20006KT 8SM OVC010 18/16 A2984 RMK AO2 T01830161
KFUL 231553Z 18006KT 7SM OVC009 18/16 A2984 RMK AO2 CIG 007V012 SLP105 T01830161
KFUL 231530Z 17004KT 7SM OVC007 18/17 A2984 RMK AO2 CIG 006V010 T01830167
KFUL 231453Z 18003KT 5SM BR OVC005 18/17 A2983 RMK AO2 CIG 005V009 SLP099 T01780167 53012
KFUL 231353Z 20005KT 6SM BR OVC005 18/17 A2981 RMK AO2 SLP094 T01780167
KFUL 231303Z 23003KT 7SM OVC006 18/17 A2980 RMK AO2 CIG 004V009 T01780167
KFUL 231253Z 22004KT 7SM OVC008 18/17 A2980 RMK AO2 CIG 005V009 SLP090 T01780167
KFUL 231153Z 00000KT 10SM OVC008 19/17 A2979 RMK AO2 SLP087 T01890167 10194 20183 55004
KFUL 231053Z AUTO 17004KT 10SM OVC007 18/17 A2979 RMK AO2 SLP087 T01830167